Time;durP1;ratioP1;P1;durP2;ratioP2;P2;SDS_P1;SDS_P2;PMS_P1;PMS_P2;Temp;Humidity;BMP_temperature;BMP_pressure;BME280_temperature;BME280_humidity;BME280_pressure;Samples;Min_cycle;Max_cycle;Signal;HPM_P1;HPM_P2
2022/06/28 00:01:50;;;;;;;17.20;15.40;;;;;;;15.98;84.52;100798.09;5118724;28;20485;-62
2022/06/28 00:04:16;;;;;;;16.83;15.13;;;;;;;16.05;84.26;100799.13;5118758;28;20467;-62
2022/06/28 00:06:43;;;;;;;18.60;16.90;;;;;;;15.80;85.46;100812.50;5118191;28;20501;-62
2022/06/28 00:09:11;;;;;;;18.80;17.00;;;;;;;15.90;85.22;100806.13;5118919;28;20496;-62
2022/06/28 00:11:38;;;;;;;18.33;16.43;;;;;;;16.00;84.62;100807.72;5118715;28;20474;-63
2022/06/28 00:16:04;;;;;;;20.17;18.17;;;;;;;15.92;84.44;100802.28;5122602;28;20767;-62
2022/06/28 00:16:52;;;;;;;19.37;17.47;;;;;;;15.96;84.58;100806.34;5121361;28;20541;-62
2022/06/28 00:19:20;;;;;;;19.37;17.37;;;;;;;15.91;85.21;100808.69;5123195;28;20507;-62
2022/06/28 00:21:46;;;;;;;22.10;20.07;;;;;;;15.83;85.20;100805.94;5122664;28;20711;-62
2022/06/28 00:24:13;;;;;;;19.03;17.13;;;;;;;15.89;85.45;100809.84;5122964;28;20430;-62
2022/06/28 00:26:41;;;;;;;21.47;19.30;;;;;;;15.76;85.67;100805.75;5122260;28;20466;-62
2022/06/28 00:29:09;;;;;;;21.60;18.60;;;;;;;15.72;85.54;100807.03;5122307;28;20511;-62
2022/06/28 00:31:36;;;;;;;21.90;19.70;;;;;;;15.47;86.67;100802.50;5105890;28;20903;-62
2022/06/28 00:34:04;;;;;;;21.67;19.40;;;;;;;15.42;86.86;100809.22;5122898;28;20453;-62
2022/06/28 00:36:32;;;;;;;23.43;19.70;;;;;;;15.46;86.90;100801.66;5121763;28;20509;-62
2022/06/28 00:38:58;;;;;;;24.77;21.37;;;;;;;15.46;86.79;100798.13;5112011;28;20450;-62
2022/06/28 00:41:25;;;;;;;23.40;20.23;;;;;;;15.31;87.00;100806.81;5121911;28;20915;-62
2022/06/28 00:43:52;;;;;;;23.87;21.50;;;;;;;15.39;86.56;100814.91;5121930;28;20557;-62
2022/06/28 00:46:20;;;;;;;23.97;20.60;;;;;;;15.34;86.86;100819.09;5121189;28;20497;-62
2022/06/28 00:48:47;;;;;;;25.17;22.63;;;;;;;15.26;87.79;100825.28;5122477;28;20939;-63
2022/06/28 00:51:14;;;;;;;23.87;21.00;;;;;;;15.13;88.11;100831.06;5122000;28;20473;-63
2022/06/28 00:53:40;;;;;;;25.23;21.47;;;;;;;15.16;88.13;100824.53;5122118;28;20466;-63
2022/06/28 00:56:07;;;;;;;23.00;20.10;;;;;;;15.27;87.89;100832.34;5121114;28;20519;-63
2022/06/28 00:58:39;;;;;;;23.67;21.20;;;;;;;15.13;87.86;100830.22;5121522;28;20486;-63
2022/06/28 01:01:06;;;;;;;24.73;22.13;;;;;;;15.20;88.47;100839.38;5122212;28;20474;-62
2022/06/28 01:03:34;;;;;;;26.57;23.43;;;;;;;15.21;87.78;100843.78;5122018;28;20793;-62
2022/06/28 01:06:01;;;;;;;28.80;25.03;;;;;;;15.12;87.84;100850.06;5121772;28;20473;-62
2022/06/28 01:08:28;;;;;;;26.40;23.70;;;;;;;15.02;88.59;100850.16;5122283;28;20518;-61
2022/06/28 01:10:54;;;;;;;26.00;22.27;;;;;;;15.06;88.25;100855.06;5121882;28;20473;-62
2022/06/28 01:13:21;;;;;;;27.97;25.00;;;;;;;14.99;88.44;100862.09;5121558;28;20472;-62
2022/06/28 01:15:48;;;;;;;26.87;24.07;;;;;;;15.01;88.68;100860.06;5120979;28;20888;-62
2022/06/28 01:18:15;;;;;;;26.07;23.30;;;;;;;14.84;89.22;100860.91;5121858;28;20450;-62
2022/06/28 01:20:44;;;;;;;26.23;23.53;;;;;;;14.82;89.57;100861.06;5120672;28;20476;-62
2022/06/28 01:23:13;;;;;;;28.50;23.70;;;;;;;14.85;89.09;100866.16;5120378;28;20470;-62
2022/06/28 01:25:40;;;;;;;26.93;24.00;;;;;;;14.81;89.27;100869.34;5120986;28;20488;-62
2022/06/28 01:28:07;;;;;;;28.70;23.77;;;;;;;14.81;89.37;100878.25;5121160;28;20470;-64
2022/06/28 01:30:34;;;;;;;33.67;26.83;;;;;;;14.75;89.32;100868.06;5120833;28;21086;-62
2022/06/28 01:33:03;;;;;;;30.17;24.83;;;;;;;14.74;88.83;100866.41;5121313;28;20435;-64
2022/06/28 01:35:30;;;;;;;28.70;25.60;;;;;;;14.67;89.36;100860.78;5120837;28;20473;-64
2022/06/28 01:37:57;;;;;;;29.70;26.53;;;;;;;14.63;89.55;100848.63;5121085;28;20473;-64
2022/06/28 01:40:26;;;;;;;28.33;25.13;;;;;;;14.63;88.81;100862.09;5120595;28;20446;-65
2022/06/28 01:42:53;;;;;;;29.30;24.87;;;;;;;14.55;89.11;100864.66;5120735;28;20446;-62
2022/06/28 01:45:19;;;;;;;29.63;26.40;;;;;;;14.47;89.09;100864.56;5120363;28;20514;-62
2022/06/28 01:47:47;;;;;;;29.43;24.07;;;;;;;14.40;89.37;100867.00;5120946;28;20987;-62
2022/06/28 01:50:13;;;;;;;28.80;24.77;;;;;;;14.37;89.47;100866.44;5104521;28;20474;-63
2022/06/28 01:52:41;;;;;;;28.33;24.63;;;;;;;14.27;90.23;100866.53;5121119;28;20431;-63
2022/06/28 01:55:09;;;;;;;26.97;23.97;;;;;;;14.28;89.75;100866.34;5120514;28;20533;-63
2022/06/28 01:57:37;;;;;;;29.37;25.43;;;;;;;14.21;89.84;100862.56;5121057;28;20446;-63
2022/06/28 02:00:04;;;;;;;28.13;24.27;;;;;;;14.25;89.82;100866.66;5120731;28;20636;-63
2022/06/28 02:02:31;;;;;;;27.50;23.97;;;;;;;14.22;89.72;100868.81;5121388;28;20466;-65
2022/06/28 02:04:58;;;;;;;28.07;23.53;;;;;;;14.19;90.07;100861.88;5120595;28;20966;-63
2022/06/28 02:07:25;;;;;;;32.23;25.63;;;;;;;14.17;90.10;100861.19;5120225;28;20609;-63
2022/06/28 02:09:51;;;;;;;30.03;25.33;;;;;;;14.13;89.68;100865.19;5120664;28;20524;-63
2022/06/28 02:12:18;;;;;;;29.23;24.57;;;;;;;14.07;89.72;100855.84;5120215;28;20539;-63
2022/06/28 02:14:46;;;;;;;26.57;22.80;;;;;;;14.04;89.59;100861.50;5120261;28;20496;-63
2022/06/28 02:17:13;;;;;;;30.50;26.03;;;;;;;14.03;89.62;100865.22;5119625;28;20539;-63
2022/06/28 02:19:39;;;;;;;28.80;25.53;;;;;;;14.03;89.74;100856.31;5120789;28;20438;-63
2022/06/28 02:22:06;;;;;;;28.03;24.27;;;;;;;13.96;89.87;100871.31;5119815;28;20478;-63
2022/06/28 02:24:33;;;;;;;30.77;26.30;;;;;;;13.94;89.88;100874.16;5120451;28;20464;-63
2022/06/28 02:26:59;;;;;;;30.57;25.37;;;;;;;13.94;89.33;100872.31;5119971;28;20484;-63
2022/06/28 02:29:26;;;;;;;30.97;27.70;;;;;;;13.94;89.96;100872.31;5119617;28;20517;-63
2022/06/28 02:31:54;;;;;;;30.60;26.47;;;;;;;13.94;90.01;100871.47;5119790;28;20470;-63
2022/06/28 02:42:35;;;;;;;37.00;28.63;;;;;;;13.87;90.29;100881.09;5119455;28;20511;-64
2022/06/28 02:45:02;;;;;;;42.90;31.30;;;;;;;13.81;90.76;100887.06;5119727;28;20533;-63
2022/06/28 02:47:30;;;;;;;36.87;30.67;;;;;;;13.73;90.42;100880.59;5119200;28;20467;-63
2022/06/28 02:49:57;;;;;;;45.00;33.47;;;;;;;13.66;91.55;100889.38;5119651;28;20844;-63
2022/06/28 02:52:23;;;;;;;42.27;34.50;;;;;;;13.74;91.71;100892.19;5119775;28;20485;-63
2022/06/28 02:54:50;;;;;;;40.70;34.67;;;;;;;13.98;90.88;100888.16;5119810;28;20439;-63
2022/06/28 02:57:17;;;;;;;46.40;34.73;;;;;;;13.86;91.21;100882.94;5119065;28;20478;-64
2022/06/28 02:59:43;;;;;;;41.30;33.50;;;;;;;13.78;91.45;100890.03;5118825;28;20510;-64
2022/06/28 03:02:10;;;;;;;49.33;36.30;;;;;;;13.79;91.86;100889.91;5119753;28;20505;-64
2022/06/28 03:04:38;;;;;;;45.63;36.10;;;;;;;13.83;91.60;100885.91;5120117;28;20727;-64
2022/06/28 03:07:05;;;;;;;51.07;37.37;;;;;;;13.76;91.36;100895.56;5119534;28;20478;-63
2022/06/28 03:09:32;;;;;;;58.23;38.83;;;;;;;13.67;91.97;100886.53;5119359;28;20450;-64
2022/06/28 03:11:58;;;;;;;59.87;40.10;;;;;;;13.71;92.25;100887.09;5118949;28;20482;-64
2022/06/28 03:14:25;;;;;;;59.50;40.90;;;;;;;13.70;92.66;100893.47;5119868;28;20458;-63
2022/06/28 03:16:52;;;;;;;65.63;42.00;;;;;;;13.67;92.54;100888.38;5118930;28;20505;-63
2022/06/28 03:19:18;;;;;;;74.57;45.23;;;;;;;13.54;93.16;100894.91;5119906;28;20442;-64
2022/06/28 03:21:46;;;;;;;70.67;45.43;;;;;;;13.67;93.32;100896.44;5119225;28;20481;-63
2022/06/28 03:24:13;;;;;;;68.47;42.43;;;;;;;13.81;92.95;100895.97;5119929;28;20496;-63
2022/06/28 03:26:39;;;;;;;72.30;45.00;;;;;;;13.80;92.57;100902.38;5108397;28;20478;-64
2022/06/28 03:29:06;;;;;;;75.33;45.60;;;;;;;14.15;91.79;100903.50;5119606;28;20478;-63
2022/06/28 03:31:33;;;;;;;72.80;45.00;;;;;;;14.29;90.72;100896.81;5119356;28;20490;-63
2022/06/28 03:34:00;;;;;;;84.07;50.40;;;;;;;14.64;89.07;100890.69;5119829;28;20457;-63
2022/06/28 03:36:26;;;;;;;79.10;47.53;;;;;;;14.73;88.39;100902.38;5118170;28;20825;-63
2022/06/28 03:38:54;;;;;;;76.53;47.70;;;;;;;14.98;87.58;100905.31;5119116;28;20474;-64
2022/06/28 03:41:23;;;;;;;81.87;48.27;;;;;;;15.60;85.69;100905.34;5118664;28;20505;-64
2022/06/28 03:43:50;;;;;;;85.20;48.37;;;;;;;15.72;83.23;100912.16;5118115;28;20527;-64
2022/06/28 03:46:17;;;;;;;83.67;48.50;;;;;;;15.97;82.46;100912.34;5117249;28;20470;-64
2022/06/28 03:48:44;;;;;;;67.60;47.60;;;;;;;16.45;80.45;100915.47;5119306;28;20445;-64
2022/06/28 03:51:11;;;;;;;61.90;44.93;;;;;;;16.26;80.01;100917.41;5118566;28;20505;-64
2022/06/28 03:53:37;;;;;;;58.70;44.73;;;;;;;16.37;79.63;100921.69;5119203;28;20437;-63
2022/06/28 03:56:06;;;;;;;49.37;40.50;;;;;;;16.79;77.36;100923.50;5117777;28;20485;-64
2022/06/28 03:58:33;;;;;;;46.00;38.20;;;;;;;17.48;75.83;100928.66;5118599;28;20485;-64
2022/06/28 04:01:00;;;;;;;47.13;36.27;;;;;;;18.15;71.85;100925.75;5118356;28;20844;-64
2022/06/28 04:03:27;;;;;;;42.30;33.90;;;;;;;18.97;68.57;100925.41;5118606;28;20459;-64
2022/06/28 04:05:53;;;;;;;40.47;33.87;;;;;;;19.43;65.38;100926.44;5118211;28;20862;-64
2022/06/28 04:08:20;;;;;;;35.17;31.37;;;;;;;20.20;63.73;100928.06;5118713;28;20454;-63
2022/06/28 04:10:48;;;;;;;32.63;29.07;;;;;;;19.66;64.29;100924.50;5117852;28;20475;-64
2022/06/28 04:13:16;;;;;;;31.60;28.20;;;;;;;19.97;63.33;100925.44;5118789;28;20430;-64
2022/06/28 04:15:42;;;;;;;29.30;26.13;;;;;;;20.20;61.83;100934.31;5118007;28;20904;-63
2022/06/28 04:18:09;;;;;;;29.57;26.27;;;;;;;20.39;60.94;100932.91;5118618;28;20803;-64
2022/06/28 04:20:41;;;;;;;26.60;23.03;;;;;;;20.31;61.55;100933.88;5117460;28;20861;-64
2022/06/28 04:23:07;;;;;;;26.03;23.17;;;;;;;20.39;61.27;100937.53;5118150;28;20449;-64
2022/06/28 04:25:34;;;;;;;29.90;24.00;;;;;;;20.44;60.63;100941.34;5115314;28;20476;-65
2022/06/28 04:28:01;;;;;;;26.03;22.60;;;;;;;20.90;59.36;100928.56;5116534;28;20463;-65
2022/06/28 04:30:31;;;;;;;26.17;23.10;;;;;;;21.35;57.97;100931.94;5118084;28;21028;-65
2022/06/28 04:32:57;;;;;;;23.50;21.10;;;;;;;21.24;57.69;100931.41;5117750;28;20442;-65
2022/06/28 04:35:24;;;;;;;23.60;21.20;;;;;;;21.31;57.68;100939.66;5116708;28;20484;-65
2022/06/28 04:37:51;;;;;;;20.47;18.37;;;;;;;22.24;55.12;100945.00;5117922;28;20484;-65
2022/06/28 04:40:18;;;;;;;21.57;19.37;;;;;;;21.60;56.58;100941.41;5115792;28;20587;-64
2022/06/28 04:42:44;;;;;;;19.60;17.70;;;;;;;21.51;57.99;100939.00;5116433;28;20446;-66
2022/06/28 04:45:11;;;;;;;19.40;16.43;;;;;;;21.40;57.93;100949.38;5116882;28;20480;-66
2022/06/28 04:47:39;;;;;;;17.53;15.70;;;;;;;22.06;55.02;100952.84;5118159;28;20438;-65
2022/06/28 04:50:06;;;;;;;16.47;14.63;;;;;;;22.12;54.28;100947.44;5118331;28;20457;-65
2022/06/28 04:52:33;;;;;;;17.80;16.00;;;;;;;22.42;54.43;100943.66;5118004;28;20489;-65
2022/06/28 04:55:00;;;;;;;19.70;15.00;;;;;;;22.64;53.53;100947.97;5118328;28;20492;-65
2022/06/28 04:57:27;;;;;;;21.43;15.93;;;;;;;22.25;54.19;100949.41;5118508;28;20491;-66
2022/06/28 04:59:53;;;;;;;16.17;14.57;;;;;;;23.38;50.97;100948.19;5121818;28;20503;-65
2022/06/28 05:02:20;;;;;;;14.17;12.67;;;;;;;23.77;49.84;100949.28;5121196;28;20474;-65
2022/06/28 05:04:48;;;;;;;13.83;12.33;;;;;;;23.88;49.17;100945.91;5121851;28;20473;-65
2022/06/28 05:07:15;;;;;;;12.90;11.57;;;;;;;23.22;50.06;100947.53;5121644;28;20826;-65
2022/06/28 05:09:42;;;;;;;12.50;11.27;;;;;;;23.74;49.46;100949.69;5122071;28;20453;-64
2022/06/28 05:12:09;;;;;;;14.40;11.67;;;;;;;22.89;51.44;100955.59;5120986;28;20480;-64
2022/06/28 05:14:35;;;;;;;13.90;11.57;;;;;;;23.24;50.30;100950.06;5121874;28;20450;-61
2022/06/28 05:17:02;;;;;;;14.37;11.03;;;;;;;23.33;49.85;100946.06;5120945;28;20484;-63
2022/06/28 05:19:30;;;;;;;12.07;9.80;;;;;;;24.85;46.94;100940.59;5121274;28;20434;-63
2022/06/28 05:21:58;;;;;;;10.87;9.77;;;;;;;24.24;47.05;100945.44;5121064;28;20466;-63
2022/06/28 05:24:24;;;;;;;11.13;9.87;;;;;;;24.42;47.61;100944.72;5121147;28;20468;-63
2022/06/28 05:26:51;;;;;;;10.83;9.53;;;;;;;23.90;47.04;100934.78;5120960;28;20474;-63
2022/06/28 05:29:18;;;;;;;11.83;10.60;;;;;;;23.19;49.54;100939.75;5120854;28;20489;-63
2022/06/28 05:31:45;;;;;;;9.63;8.67;;;;;;;24.42;47.55;100939.28;5120585;28;20660;-63
2022/06/28 05:34:12;;;;;;;10.63;8.37;;;;;;;24.71;45.97;100939.84;5121214;28;20462;-63
2022/06/28 05:36:39;;;;;;;9.20;7.70;;;;;;;24.15;46.41;100933.06;5130112;27;20480;-63
2022/06/28 05:39:07;;;;;;;8.43;7.53;;;;;;;23.55;48.94;100921.34;5120647;28;20520;-63
2022/06/28 05:41:34;;;;;;;8.40;7.60;;;;;;;24.85;45.61;100926.09;5121207;28;20495;-64
2022/06/28 05:44:01;;;;;;;10.60;7.30;;;;;;;24.49;45.10;100925.59;5121371;28;20466;-63
2022/06/28 05:46:28;;;;;;;7.87;7.07;;;;;;;24.92;43.94;100922.25;5120294;28;20526;-64
2022/06/28 05:48:55;;;;;;;12.60;7.90;;;;;;;24.99;44.15;100930.44;5131361;27;20438;-64
2022/06/28 05:51:21;;;;;;;8.10;7.10;;;;;;;25.90;42.57;100929.13;5141241;27;20473;-65
2022/06/28 05:53:49;;;;;;;8.37;6.70;;;;;;;25.75;42.81;100928.63;5142117;27;20915;-64
2022/06/28 05:56:17;;;;;;;7.50;6.60;;;;;;;27.19;39.03;100925.47;5141225;27;20465;-65
2022/06/28 05:58:44;;;;;;;9.80;8.60;;;;;;;25.41;42.54;100924.50;5141385;27;20521;-64
2022/06/28 06:01:10;;;;;;;9.30;8.27;;;;;;;25.28;41.73;100918.06;5140811;27;20493;-64
2022/06/28 06:03:38;;;;;;;9.30;7.97;;;;;;;25.16;43.00;100923.38;5123948;27;20439;-65
2022/06/28 06:06:04;;;;;;;10.00;9.00;;;;;;;25.16;42.26;100925.28;5141322;27;20534;-65
2022/06/28 06:08:31;;;;;;;9.23;8.37;;;;;;;25.81;41.72;100927.72;5132110;27;20476;-64
2022/06/28 06:10:58;;;;;;;10.03;9.03;;;;;;;25.52;42.16;100935.56;5119628;28;20551;-64
2022/06/28 06:13:26;;;;;;;12.70;9.60;;;;;;;26.66;39.42;100937.19;5120517;28;20889;-65
2022/06/28 06:15:53;;;;;;;11.60;9.20;;;;;;;25.18;42.77;100923.97;5119303;28;20516;-64
2022/06/28 06:18:20;;;;;;;13.10;9.37;;;;;;;25.88;41.53;100935.88;5120764;28;20499;-64
2022/06/28 06:20:46;;;;;;;11.90;9.53;;;;;;;24.98;42.84;100932.34;5129369;27;20808;-64
2022/06/28 06:23:13;;;;;;;10.60;9.60;;;;;;;25.86;40.83;100930.63;5141013;27;20422;-64
2022/06/28 06:25:40;;;;;;;11.73;9.70;;;;;;;25.23;42.59;100938.94;5140879;27;20514;-64
2022/06/28 06:28:06;;;;;;;10.87;9.87;;;;;;;26.14;40.08;100944.94;5141397;27;20448;-64
2022/06/28 06:30:36;;;;;;;10.50;9.43;;;;;;;24.43;43.74;100946.44;5140214;27;20839;-63
2022/06/28 06:33:03;;;;;;;10.07;9.13;;;;;;;25.24;41.71;100940.59;5130384;27;20466;-64
2022/06/28 06:35:29;;;;;;;12.10;8.27;;;;;;;26.59;40.19;100942.72;5119206;28;20945;-64
2022/06/28 06:38:00;;;;;;;9.63;8.63;;;;;;;26.78;39.42;100956.44;5120752;28;20462;-64
2022/06/28 06:40:27;;;;;;;9.97;7.97;;;;;;;27.32;37.99;100945.56;5119765;28;20533;-64
2022/06/28 06:42:53;;;;;;;8.37;7.53;;;;;;;26.51;39.30;100940.31;5120440;28;20466;-64
2022/06/28 06:45:20;;;;;;;9.77;7.43;;;;;;;27.24;37.19;100950.31;5117127;28;20939;-64
2022/06/28 06:47:48;;;;;;;9.90;7.83;;;;;;;26.78;38.22;100950.97;5117710;28;20878;-64
2022/06/28 06:50:15;;;;;;;8.27;7.47;;;;;;;26.75;38.55;100955.03;5118671;28;20947;-64
2022/06/28 06:52:41;;;;;;;8.60;7.63;;;;;;;27.87;36.41;100944.47;5119812;28;20480;-64
2022/06/28 06:55:09;;;;;;;8.47;7.67;;;;;;;28.40;35.16;100946.25;5118715;28;20470;-64
2022/06/28 06:57:35;;;;;;;8.87;7.90;;;;;;;27.68;36.36;100943.75;5119835;28;20963;-64
2022/06/28 07:00:03;;;;;;;8.83;7.20;;;;;;;26.85;37.23;100948.97;5119405;28;20832;-63
2022/06/28 07:02:30;;;;;;;7.03;6.00;;;;;;;26.49;38.08;100946.00;5118628;28;20493;-64
2022/06/28 07:04:58;;;;;;;9.87;7.47;;;;;;;26.36;39.19;100954.38;5119665;28;20446;-64
2022/06/28 07:07:26;;;;;;;9.97;7.70;;;;;;;25.95;39.54;100946.81;5118931;28;20478;-64
2022/06/28 07:09:53;;;;;;;8.50;6.97;;;;;;;26.97;38.80;100944.34;5118278;28;20485;-64
2022/06/28 07:12:20;;;;;;;7.90;7.20;;;;;;;26.91;36.96;100948.03;5119000;28;20473;-64
2022/06/28 07:14:46;;;;;;;7.70;5.10;;;;;;;27.45;35.57;100941.78;5118977;28;20442;-64
2022/06/28 07:17:13;;;;;;;6.87;5.03;;;;;;;26.98;36.49;100943.31;5117389;28;21015;-64
2022/06/28 07:19:40;;;;;;;6.43;4.90;;;;;;;27.01;36.27;100945.59;5119422;28;20476;-64
2022/06/28 07:22:08;;;;;;;6.73;5.30;;;;;;;29.27;32.64;100950.75;5119074;28;20481;-64
2022/06/28 07:24:34;;;;;;;7.23;6.03;;;;;;;28.81;34.58;100949.84;5118532;28;20426;-64
2022/06/28 07:27:01;;;;;;;4.67;4.20;;;;;;;28.01;34.82;100943.16;5118338;28;20469;-65
2022/06/28 07:29:27;;;;;;;4.10;2.90;;;;;;;27.51;34.36;100943.59;5118624;28;20477;-64
2022/06/28 07:31:54;;;;;;;3.67;2.90;;;;;;;27.71;33.65;100946.00;5117962;28;20715;-64
2022/06/28 07:34:21;;;;;;;4.03;3.30;;;;;;;27.22;34.79;100940.63;5119669;28;20596;-64
2022/06/28 07:36:47;;;;;;;4.50;4.00;;;;;;;27.78;33.61;100947.56;5138373;27;20499;-64
2022/06/28 07:39:15;;;;;;;4.10;3.43;;;;;;;27.34;34.44;100957.16;5139668;27;20440;-64
2022/06/28 07:41:42;;;;;;;2.97;2.67;;;;;;;28.08;33.37;100949.38;5139416;27;20473;-64
2022/06/28 07:44:09;;;;;;;3.93;2.43;;;;;;;28.88;30.99;100944.19;5130033;27;21036;-64
2022/06/28 07:46:36;;;;;;;3.33;2.47;;;;;;;28.65;30.38;100943.22;5117915;27;20846;-64
2022/06/28 07:49:02;;;;;;;7.20;2.17;;;;;;;27.87;30.20;100948.03;5119029;28;20474;-64
2022/06/28 07:54:13;;;;;;;4.40;3.43;;;;;;;27.73;33.26;100941.94;5140317;27;20423;-64
2022/06/28 07:56:41;;;;;;;7.80;3.70;;;;;;;26.70;34.32;100949.38;5125441;27;20495;-64
2022/06/28 07:59:07;;;;;;;5.90;4.17;;;;;;;26.08;35.67;100947.50;5118660;28;20503;-64
2022/06/28 08:01:34;;;;;;;6.47;4.83;;;;;;;27.18;34.04;100951.22;5118695;28;20493;-64
2022/06/28 08:04:01;;;;;;;7.00;4.73;;;;;;;26.76;35.91;100958.59;5119972;28;20457;-64
2022/06/28 08:06:27;;;;;;;7.77;5.10;;;;;;;25.96;37.97;100954.81;5118766;28;21026;-64
2022/06/28 08:08:54;;;;;;;6.60;5.50;;;;;;;26.63;37.92;100954.09;5133005;28;20441;-64
2022/06/28 08:11:21;;;;;;;7.00;3.70;;;;;;;27.49;35.68;100945.75;5138978;28;20476;-64
2022/06/28 08:13:50;;;;;;;6.33;4.33;;;;;;;26.73;35.72;100954.38;5139296;28;20509;-64
2022/06/28 08:16:17;;;;;;;8.23;4.37;;;;;;;27.27;35.59;100948.16;5138525;28;20555;-64
2022/06/28 08:18:43;;;;;;;6.60;4.20;;;;;;;28.37;33.34;100941.22;5139243;28;20701;-64
2022/06/28 08:21:10;;;;;;;5.70;4.40;;;;;;;27.77;35.03;100942.31;5121564;27;20481;-64
2022/06/28 08:23:37;;;;;;;4.37;3.93;;;;;;;27.60;34.22;100939.41;5139888;28;20460;-65
2022/06/28 08:26:04;;;;;;;5.13;3.90;;;;;;;28.27;33.81;100941.00;5131438;28;20888;-64
2022/06/28 08:28:30;;;;;;;6.30;4.03;;;;;;;28.20;34.71;100929.31;5118627;28;20489;-65
2022/06/28 08:30:59;;;;;;;5.73;3.80;;;;;;;28.45;34.97;100937.25;5118341;28;20480;-64
2022/06/28 08:33:25;;;;;;;5.20;3.40;;;;;;;28.12;33.25;100934.09;5121326;28;20656;-64
2022/06/28 08:35:52;;;;;;;7.50;4.27;;;;;;;26.89;36.59;100944.72;5122011;28;20474;-65
2022/06/28 08:38:19;;;;;;;7.03;4.03;;;;;;;27.02;36.28;100943.66;5114607;28;20442;-64
2022/06/28 08:40:46;;;;;;;5.00;3.40;;;;;;;27.41;34.98;100939.53;5101629;28;20504;-64
2022/06/28 08:43:13;;;;;;;4.00;3.60;;;;;;;27.46;35.51;100938.78;5103051;28;20419;-64
2022/06/28 08:45:40;;;;;;;4.17;3.33;;;;;;;27.71;34.99;100938.59;5100634;28;20950;-66
2022/06/28 08:48:14;;;;;;;4.03;2.90;;;;;;;27.54;34.67;100926.66;5102013;28;20455;-63
2022/06/28 08:50:42;;;;;;;7.60;2.77;;;;;;;27.30;33.90;100932.09;5102022;28;20480;-65
2022/06/28 08:53:10;;;;;;;2.70;2.03;;;;;;;28.13;32.68;100934.91;5102448;28;20473;-64
2022/06/28 08:55:37;;;;;;;4.30;2.10;;;;;;;27.68;32.82;100941.00;5101581;28;20884;-64
2022/06/28 08:58:07;;;;;;;2.97;1.90;;;;;;;28.48;32.98;100939.50;5101853;28;20431;-64
2022/06/28 09:00:35;;;;;;;6.00;2.27;;;;;;;28.02;32.89;100928.38;5101386;28;20475;-64
2022/06/28 09:03:02;;;;;;;5.93;2.07;;;;;;;27.05;33.86;100935.81;5102626;28;20451;-65
2022/06/28 09:05:30;;;;;;;3.07;1.70;;;;;;;29.19;30.53;100912.59;5101544;28;20837;-64
2022/06/28 09:07:57;;;;;;;2.73;1.70;;;;;;;29.26;30.65;100924.28;5101448;28;20453;-64
2022/06/28 09:10:25;;;;;;;3.60;1.87;;;;;;;30.19;28.02;100921.06;5101556;28;20439;-65
2022/06/28 09:13:05;;;;;;;2.83;1.60;;;;;;;28.84;30.21;100919.09;5102047;28;20467;-64
2022/06/28 09:15:46;;;;;;;4.87;1.67;;;;;;;28.64;31.82;100924.19;5100337;28;20979;-64
2022/06/28 09:18:13;;;;;;;3.80;1.73;;;;;;;26.97;34.07;100927.06;5101840;28;20451;-64
2022/06/28 09:20:42;;;;;;;7.43;2.23;;;;;;;29.50;29.70;100921.38;5101289;28;20471;-64
2022/06/28 09:23:23;;;;;;;3.40;1.80;;;;;;;28.94;32.54;100923.97;5101999;28;20487;-65
2022/06/28 09:25:50;;;;;;;3.73;2.07;;;;;;;29.22;30.28;100922.28;5100714;28;20492;-64
2022/06/28 09:28:24;;;;;;;4.20;2.00;;;;;;;27.65;30.80;100923.06;5101480;28;20478;-64
2022/06/28 09:30:54;;;;;;;3.93;1.43;;;;;;;27.73;31.32;100925.47;5101384;28;20463;-64
2022/06/28 09:33:27;;;;;;;2.20;1.00;;;;;;;27.72;31.59;100923.78;5101710;28;20563;-64
2022/06/28 09:35:56;;;;;;;2.10;1.10;;;;;;;27.18;32.34;100929.28;5125671;27;20514;-65
2022/06/28 09:38:32;;;;;;;3.50;1.33;;;;;;;28.50;28.84;100918.09;5142234;27;20444;-64
2022/06/28 09:40:59;;;;;;;2.40;1.03;;;;;;;29.18;29.58;100916.41;5141753;27;20473;-64
2022/06/28 09:43:32;;;;;;;2.63;1.30;;;;;;;28.81;29.61;100925.06;5142016;27;20650;-64
2022/06/28 09:45:59;;;;;;;2.90;1.40;;;;;;;27.85;29.39;100921.88;5139909;27;20538;-64
2022/06/28 09:48:26;;;;;;;2.40;0.93;;;;;;;29.51;27.97;100916.69;5141754;27;20473;-64
2022/06/28 09:50:59;;;;;;;2.17;1.20;;;;;;;29.09;28.32;100915.13;5141529;27;20494;-64
2022/06/28 09:53:29;;;;;;;3.80;0.90;;;;;;;27.43;32.16;100911.81;5142470;27;20469;-64
2022/06/28 09:55:59;;;;;;;2.80;1.17;;;;;;;29.11;29.41;100919.31;5141668;27;20465;-64
2022/06/28 09:58:26;;;;;;;3.37;1.20;;;;;;;29.38;27.19;100917.88;5141310;27;21088;-64
2022/06/28 10:00:53;;;;;;;2.80;1.40;;;;;;;29.76;28.25;100913.56;5141262;27;20498;-65
2022/06/28 10:03:20;;;;;;;2.23;1.07;;;;;;;28.80;30.31;100906.06;5142182;27;20428;-64
2022/06/28 10:05:47;;;;;;;3.27;1.20;;;;;;;28.70;30.29;100906.72;5141122;27;21156;-65
2022/06/28 10:08:15;;;;;;;1.90;0.87;;;;;;;29.42;28.85;100900.56;5141732;27;20421;-65
2022/06/28 10:10:42;;;;;;;2.30;1.00;;;;;;;29.72;27.33;100912.34;5141406;27;20537;-64
2022/06/28 10:15:55;;;;;;;3.93;1.40;;;;;;;28.50;29.63;100915.34;5122954;27;20552;-64
2022/06/28 10:18:23;;;;;;;2.83;1.03;;;;;;;29.76;27.08;100905.28;5121186;28;20446;-65
2022/06/28 10:20:50;;;;;;;1.60;0.60;;;;;;;27.83;30.50;100913.03;5120938;28;20473;-64
2022/06/28 10:23:26;;;;;;;4.20;0.90;;;;;;;27.03;32.10;100918.75;5121411;28;20423;-65
2022/06/28 10:26:04;;;;;;;4.00;0.90;;;;;;;28.47;30.76;100916.69;5120100;28;20470;-65
2022/06/28 10:28:37;;;;;;;1.93;0.80;;;;;;;29.27;30.03;100916.88;5120511;28;20474;-64
2022/06/28 10:31:38;;;;;;;2.40;1.10;;;;;;;30.12;28.58;100912.16;5120237;28;20470;-64
2022/06/28 10:34:07;;;;;;;5.27;1.00;;;;;;;29.95;27.05;100901.16;5120386;28;20814;-64
2022/06/28 10:36:43;;;;;;;2.50;0.73;;;;;;;29.55;26.39;100909.63;5119939;28;20478;-64
2022/06/28 10:39:17;;;;;;;3.07;1.13;;;;;;;29.61;28.15;100901.16;5105779;28;20697;-64
2022/06/28 10:41:45;;;;;;;2.10;1.10;;;;;;;27.49;31.42;100897.13;5077341;28;21047;-64
2022/06/28 10:44:12;;;;;;;5.40;1.70;;;;;;;27.68;31.63;100899.78;5077302;28;20502;-64
2022/06/28 10:46:40;;;;;;;3.07;1.10;;;;;;;27.52;32.33;100901.34;5076317;28;20511;-64
2022/06/28 10:49:11;;;;;;;2.50;1.00;;;;;;;29.20;29.32;100897.75;5076996;28;20460;-64
2022/06/28 10:52:10;;;;;;;1.47;0.97;;;;;;;29.98;27.25;100899.78;5076487;28;20518;-64
2022/06/28 10:54:40;;;;;;;2.10;0.70;;;;;;;29.11;27.22;100890.94;5073354;28;20459;-64
2022/06/28 10:57:24;;;;;;;2.40;0.83;;;;;;;29.89;28.45;100893.88;5075651;28;20511;-65
2022/06/28 10:59:53;;;;;;;5.80;1.00;;;;;;;30.04;28.56;100899.63;5076513;28;20475;-64
2022/06/28 11:02:20;;;;;;;2.60;1.20;;;;;;;30.48;28.99;100892.47;5079101;28;21148;-64
2022/06/28 11:04:47;;;;;;;1.53;0.83;;;;;;;29.89;27.89;100891.13;5095142;28;20509;-64
2022/06/28 11:07:24;;;;;;;1.00;0.50;;;;;;;30.62;26.32;100890.97;5099022;28;20570;-64
2022/06/28 11:10:05;;;;;;;5.33;1.33;;;;;;;29.39;27.41;100889.22;5099229;28;20451;-64
2022/06/28 11:12:39;;;;;;;1.97;0.83;;;;;;;29.23;27.15;100879.88;5099100;28;21087;-64
2022/06/28 11:15:08;;;;;;;1.70;0.63;;;;;;;29.78;28.07;100879.13;5108968;28;21084;-64
2022/06/28 11:17:36;;;;;;;2.27;0.97;;;;;;;28.74;27.08;100881.19;5119587;28;20521;-64
2022/06/28 11:20:05;;;;;;;3.10;1.23;;;;;;;28.22;28.41;100872.97;5119476;28;20446;-63
2022/06/28 11:22:33;;;;;;;3.50;1.23;;;;;;;28.96;27.71;100868.63;5119566;28;20430;-63
2022/06/28 11:25:03;;;;;;;3.23;0.90;;;;;;;29.60;26.36;100873.84;5119643;28;20477;-64
2022/06/28 11:27:29;;;;;;;2.13;0.70;;;;;;;29.70;25.27;100860.22;5118936;28;20909;-64
2022/06/28 11:30:03;;;;;;;1.60;0.60;;;;;;;29.96;28.24;100864.19;5118821;28;21001;-64
2022/06/28 11:32:32;;;;;;;2.73;0.97;;;;;;;28.93;26.71;100859.78;5119459;28;20507;-64
2022/06/28 11:35:01;;;;;;;6.30;1.17;;;;;;;28.80;27.49;100862.88;5119412;28;20978;-64